createdAt,value
2022-11-01T00:01:35.819Z,100860
2022-11-01T00:06:35.943Z,100860
2022-11-01T00:11:35.387Z,100850
2022-11-01T00:16:35.335Z,100850
2022-11-01T00:21:35.399Z,100840
2022-11-01T00:26:35.377Z,100830
2022-11-01T00:31:35.324Z,100830
2022-11-01T00:36:35.485Z,100820
2022-11-01T00:41:35.305Z,100820
2022-11-01T00:46:35.357Z,100800
2022-11-01T00:51:35.394Z,100800
2022-11-01T00:56:35.346Z,100790
2022-11-01T01:01:36.132Z,100800
2022-11-01T01:06:35.424Z,100790
2022-11-01T01:11:35.385Z,100780
2022-11-01T01:16:35.644Z,100780
2022-11-01T01:21:35.456Z,100770
2022-11-01T01:26:35.607Z,100770
2022-11-01T01:31:35.467Z,100770
2022-11-01T01:36:35.667Z,100770
2022-11-01T01:41:35.563Z,100770
2022-11-01T01:46:35.497Z,100760
2022-11-01T01:51:35.564Z,100760
2022-11-01T01:56:36.107Z,100760
2022-11-01T02:01:39.879Z,100760
2022-11-01T02:06:36.943Z,100760
2022-11-01T02:11:35.549Z,100760
2022-11-01T02:16:46.516Z,100760
2022-11-01T02:21:50.214Z,100760
2022-11-01T02:26:55.481Z,100750
2022-11-01T02:31:55.485Z,100760
2022-11-01T02:36:45.778Z,100760
2022-11-01T02:41:43.825Z,100780
2022-11-01T02:46:39.106Z,100780
2022-11-01T02:51:37.656Z,100770
2022-11-01T02:56:38.076Z,100770
2022-11-01T03:01:37.598Z,100770
2022-11-01T03:06:42.625Z,100770
2022-11-01T03:11:45.621Z,100770
2022-11-01T03:16:50.437Z,100770
2022-11-01T03:21:40.984Z,100770
2022-11-01T03:26:38.164Z,100790
2022-11-01T03:31:38.335Z,100800
2022-11-01T03:36:39.598Z,100830
2022-11-01T03:41:41.104Z,100840
2022-11-01T03:46:36.045Z,100840
2022-11-01T03:51:35.847Z,100850
2022-11-01T03:56:37.320Z,100860
2022-11-01T04:01:36.745Z,100860
2022-11-01T04:06:35.816Z,100880
2022-11-01T04:11:35.819Z,100900
2022-11-01T04:16:35.803Z,100920
2022-11-01T04:21:36.526Z,100920
2022-11-01T04:26:36.865Z,100940
2022-11-01T04:31:36.102Z,100940
2022-11-01T04:36:36.570Z,100960
2022-11-01T04:41:35.928Z,100980
2022-11-01T04:46:35.934Z,100980
2022-11-01T04:51:35.932Z,101000
2022-11-01T04:56:35.959Z,101000
2022-11-01T05:01:36.670Z,101020
2022-11-01T05:06:35.904Z,101030
2022-11-01T05:11:35.960Z,101030
2022-11-01T05:16:35.983Z,101030
2022-11-01T05:21:35.953Z,101050
2022-11-01T05:26:36.020Z,101050
2022-11-01T05:31:36.426Z,101030
2022-11-01T05:36:35.990Z,101050
2022-11-01T05:41:36.133Z,101050
2022-11-01T05:46:36.118Z,101060
2022-11-01T05:51:36.019Z,101080
2022-11-01T05:56:36.049Z,101090
2022-11-01T06:01:36.883Z,101090
2022-11-01T06:06:36.051Z,101090
2022-11-01T06:11:40.573Z,101100
2022-11-01T06:16:36.244Z,101110
2022-11-01T06:21:36.101Z,101120
2022-11-01T06:26:36.432Z,101110
2022-11-01T06:31:36.426Z,101130
2022-11-01T06:36:36.125Z,101130
2022-11-01T06:41:36.405Z,101150
2022-11-01T06:46:36.189Z,101130
2022-11-01T06:51:36.185Z,101150
2022-11-01T06:56:36.262Z,101160
2022-11-01T07:01:37.147Z,101160
2022-11-01T07:06:36.191Z,101180
2022-11-01T07:11:36.220Z,101180
2022-11-01T07:16:36.249Z,101200
2022-11-01T07:21:36.995Z,101210
2022-11-01T07:26:36.226Z,101230
2022-11-01T07:31:36.319Z,101230
2022-11-01T07:36:36.503Z,101250
2022-11-01T07:41:36.293Z,101250
2022-11-01T07:46:36.301Z,101270
2022-11-01T07:51:36.287Z,101270
2022-11-01T07:56:36.322Z,101260
2022-11-01T08:01:38.139Z,101270
2022-11-01T08:06:36.327Z,101280
2022-11-01T08:11:36.480Z,101270
2022-11-01T08:16:36.371Z,101300
2022-11-01T08:21:36.394Z,101290
2022-11-01T08:26:36.378Z,101320
2022-11-01T08:31:40.216Z,101320
2022-11-01T08:36:36.398Z,101320
2022-11-01T08:41:37.372Z,101330
2022-11-01T08:46:36.462Z,101330
2022-11-01T08:51:36.814Z,101330
2022-11-01T08:56:36.458Z,101340
2022-11-01T09:01:37.705Z,101340
2022-11-01T09:06:36.944Z,101340
2022-11-01T09:11:36.534Z,101350
2022-11-01T09:16:36.561Z,101360
2022-11-01T09:21:36.525Z,101360
2022-11-01T09:26:37.059Z,101360
2022-11-01T09:31:36.960Z,101370
2022-11-01T09:36:39.465Z,101370
2022-11-01T09:41:41.664Z,101390
2022-11-01T09:46:44.105Z,101400
2022-11-01T09:51:37.724Z,101410
2022-11-01T09:56:41.971Z,101420
2022-11-01T10:01:56.590Z,101440
2022-11-01T10:06:42.814Z,101440
2022-11-01T10:11:53.619Z,101450
2022-11-01T10:16:39.029Z,101450
2022-11-01T10:21:46.451Z,101460
2022-11-01T10:26:36.703Z,101460
2022-11-01T10:31:42.608Z,101460
2022-11-01T10:36:39.425Z,101440
2022-11-01T10:41:40.399Z,101440
2022-11-01T10:46:41.158Z,101440
2022-11-01T10:51:41.035Z,101450
2022-11-01T10:56:41.584Z,101450
2022-11-01T11:01:40.158Z,101430
2022-11-01T11:06:38.324Z,101430
2022-11-01T11:11:39.679Z,101430
2022-11-01T11:16:42.947Z,101440
2022-11-01T11:21:36.895Z,101440
2022-11-01T11:26:38.885Z,101440
2022-11-01T11:31:36.832Z,101440
2022-11-01T11:36:42.105Z,101460
2022-11-01T11:41:36.824Z,101460
2022-11-01T11:46:49.084Z,101460
2022-11-01T11:51:37.131Z,101460
2022-11-01T11:56:37.054Z,101460
2022-11-01T12:01:37.923Z,101470
2022-11-01T12:06:40.862Z,101470
2022-11-01T12:11:39.941Z,101480
2022-11-01T12:16:40.178Z,101460
2022-11-01T12:21:41.074Z,101470
2022-11-01T12:26:37.227Z,101470
2022-11-01T12:31:41.412Z,101460
2022-11-01T12:36:47.140Z,101460
2022-11-01T12:41:46.292Z,101450
2022-11-01T12:46:45.617Z,101450
2022-11-01T12:51:43.125Z,101460
2022-11-01T12:56:37.097Z,101440
2022-11-01T13:01:47.204Z,101440
2022-11-01T13:06:55.553Z,101450
2022-11-01T13:11:53.237Z,101440
2022-11-01T13:16:42.860Z,101430
2022-11-01T13:21:49.053Z,101430
2022-11-01T13:26:44.365Z,101430
2022-11-01T13:31:50.268Z,101420
2022-11-01T13:36:51.689Z,101420
2022-11-01T13:41:47.755Z,101410
2022-11-01T13:46:57.021Z,101410
2022-11-01T13:51:38.123Z,101420
2022-11-01T13:56:47.550Z,101430
2022-11-01T14:01:38.097Z,101440
2022-11-01T14:06:39.439Z,101430
2022-11-01T14:11:40.430Z,101420
2022-11-01T14:16:37.189Z,101430
2022-11-01T14:21:45.347Z,101440
2022-11-01T14:26:46.222Z,101440
2022-11-01T14:31:38.727Z,101420
2022-11-01T14:36:42.539Z,101410
2022-11-01T14:41:39.663Z,101410
2022-11-01T14:46:46.215Z,101420
2022-11-01T14:51:45.521Z,101430
2022-11-01T14:56:41.056Z,101430
2022-11-01T15:01:47.275Z,101420
2022-11-01T15:06:42.107Z,101420
2022-11-01T15:11:37.354Z,101420
2022-11-01T15:16:41.630Z,101430
2022-11-01T15:21:46.682Z,101420
2022-11-01T15:26:37.399Z,101420
2022-11-01T15:31:50.236Z,101410
2022-11-01T15:36:38.075Z,101410
2022-11-01T15:41:37.364Z,101420
2022-11-01T15:46:40.720Z,101410
2022-11-01T15:51:44.434Z,101410
2022-11-01T15:56:41.576Z,101420
2022-11-01T16:01:38.254Z,101430
2022-11-01T16:06:44.491Z,101430
2022-11-01T16:11:37.482Z,101440
2022-11-01T16:16:54.704Z,101450
2022-11-01T16:21:37.816Z,101460
2022-11-01T16:26:55.729Z,101460
2022-11-01T16:31:37.640Z,101460
2022-11-01T16:36:39.082Z,101460
2022-11-01T16:41:40.757Z,101460
2022-11-01T16:46:38.231Z,101470
2022-11-01T16:51:37.535Z,101470
2022-11-01T16:56:44.229Z,101470
2022-11-01T17:01:39.472Z,101460
2022-11-01T17:06:38.969Z,101450
2022-11-01T17:11:37.597Z,101440
2022-11-01T17:16:39.373Z,101450
2022-11-01T17:21:37.705Z,101440
2022-11-01T17:26:37.624Z,101450
2022-11-01T17:31:37.601Z,101450
2022-11-01T17:36:42.662Z,101450
2022-11-01T17:41:38.377Z,101450
2022-11-01T17:46:37.905Z,101450
2022-11-01T17:51:38.026Z,101450
2022-11-01T17:56:37.673Z,101460
2022-11-01T18:01:39.563Z,101460
2022-11-01T18:06:37.697Z,101460
2022-11-01T18:11:47.052Z,101450
2022-11-01T18:16:45.891Z,101440
2022-11-01T18:21:54.854Z,101440
2022-11-01T18:26:37.747Z,101440
2022-11-01T18:31:43.529Z,101440
2022-11-01T18:36:46.610Z,101450
2022-11-01T18:41:38.415Z,101450
2022-11-01T18:46:48.883Z,101450
2022-11-01T18:51:38.299Z,101450
2022-11-01T18:56:39.733Z,101440
2022-11-01T19:01:38.406Z,101440
2022-11-01T19:06:37.862Z,101440
2022-11-01T19:11:37.865Z,101450
2022-11-01T19:16:37.901Z,101450
2022-11-01T19:21:37.869Z,101460
2022-11-01T19:26:40.415Z,101450
2022-11-01T19:31:37.965Z,101450
2022-11-01T19:36:40.381Z,101460
2022-11-01T19:41:37.962Z,101460
2022-11-01T19:46:37.927Z,101460
2022-11-01T19:51:37.948Z,101440
2022-11-01T19:56:38.584Z,101430
2022-11-01T20:01:41.457Z,101420
2022-11-01T20:06:45.278Z,101420
2022-11-01T20:11:38.067Z,101420
2022-11-01T20:16:38.569Z,101410
2022-11-01T20:21:38.032Z,101410
2022-11-01T20:26:38.177Z,101410
2022-11-01T20:31:38.100Z,101420
2022-11-01T20:36:38.059Z,101420
2022-11-01T20:41:38.025Z,101420
2022-11-01T20:46:38.134Z,101430
2022-11-01T20:51:38.438Z,101440
2022-11-01T20:56:38.074Z,101440
2022-11-01T21:01:38.852Z,101440
2022-11-01T21:06:38.111Z,101440
2022-11-01T21:11:38.116Z,101450
2022-11-01T21:16:38.161Z,101450
2022-11-01T21:21:42.467Z,101450
2022-11-01T21:26:38.226Z,101450
2022-11-01T21:31:38.183Z,101450
2022-11-01T21:36:41.469Z,101450
2022-11-01T21:41:41.303Z,101460
2022-11-01T21:46:38.201Z,101460
2022-11-01T21:51:38.223Z,101470
2022-11-01T21:56:38.217Z,101460
2022-11-01T22:01:42.793Z,101460
2022-11-01T22:06:39.149Z,101470
2022-11-01T22:11:38.512Z,101450
2022-11-01T22:16:38.514Z,101440
2022-11-01T22:21:38.340Z,101450
2022-11-01T22:26:38.351Z,101420
2022-11-01T22:31:38.340Z,101400
2022-11-01T22:36:39.681Z,101390
2022-11-01T22:41:39.680Z,101380
2022-11-01T22:46:58.010Z,101370
2022-11-01T22:51:42.414Z,101360
2022-11-01T22:56:38.343Z,101360
2022-11-01T23:01:39.139Z,101360
2022-11-01T23:06:39.391Z,101360
2022-11-01T23:11:38.373Z,101360
2022-11-01T23:16:42.633Z,101360
2022-11-01T23:21:38.879Z,101360
2022-11-01T23:26:38.435Z,101350
2022-11-01T23:31:38.447Z,101360
2022-11-01T23:36:38.486Z,101360
2022-11-01T23:41:41.531Z,101350
2022-11-01T23:46:38.744Z,101350
2022-11-01T23:51:38.563Z,101350
2022-11-01T23:56:41.237Z,101350
